createdAt,value
2023-11-27T00:00:42.148Z,11.70
2023-11-27T00:01:45.898Z,13.05
2023-11-27T00:02:48.412Z,10.98
2023-11-27T00:03:51.672Z,11.07
2023-11-27T00:04:54.102Z,10.90
2023-11-27T00:05:57.580Z,12.48
2023-11-27T00:06:59.753Z,10.50
2023-11-27T00:08:03.070Z,12.20
2023-11-27T00:09:05.801Z,11.57
2023-11-27T00:10:08.540Z,13.05
2023-11-27T00:11:11.995Z,10.25
2023-11-27T00:12:14.169Z,12.02
2023-11-27T00:13:17.273Z,9.95
2023-11-27T00:14:19.368Z,10.07
2023-11-27T00:15:23.848Z,10.38
2023-11-27T00:16:26.090Z,10.50
2023-11-27T00:17:29.747Z,11.75
2023-11-27T00:18:32.351Z,10.50
2023-11-27T00:19:35.419Z,10.05
2023-11-27T00:20:37.733Z,9.05
2023-11-27T00:21:41.339Z,9.30
2023-11-27T00:22:43.657Z,10.45
2023-11-27T00:23:46.934Z,10.13
2023-11-27T00:24:49.236Z,9.05
2023-11-27T00:25:53.148Z,8.88
2023-11-27T00:26:55.385Z,8.65
2023-11-27T00:27:58.524Z,9.73
2023-11-27T00:29:00.604Z,7.43
2023-11-27T00:30:05.959Z,8.70
2023-11-27T00:31:10.721Z,7.85
2023-11-27T00:32:14.005Z,9.27
2023-11-27T00:33:16.228Z,7.65
2023-11-27T00:34:19.347Z,8.15
2023-11-27T00:35:21.517Z,8.90
2023-11-27T00:36:25.347Z,7.55
2023-11-27T00:37:27.478Z,9.15
2023-11-27T00:38:30.708Z,7.68
2023-11-27T00:39:33.278Z,6.63
2023-11-27T00:40:38.216Z,7.93
2023-11-27T00:41:40.405Z,7.05
2023-11-27T00:42:43.819Z,7.93
2023-11-27T00:43:46.284Z,7.63
2023-11-27T00:44:49.360Z,8.50
2023-11-27T00:45:51.498Z,7.80
2023-11-27T00:46:56.138Z,7.35
2023-11-27T00:48:00.606Z,6.82
2023-11-27T00:49:04.023Z,6.80
2023-11-27T00:50:07.638Z,7.43
2023-11-27T00:51:11.734Z,6.55
2023-11-27T00:52:14.059Z,7.07
2023-11-27T00:53:20.220Z,7.15
2023-11-27T00:54:22.980Z,6.53
2023-11-27T00:55:26.104Z,8.13
2023-11-27T00:56:28.603Z,6.85
2023-11-27T00:57:31.974Z,7.40
2023-11-27T00:58:35.018Z,6.80
2023-11-27T00:59:41.729Z,6.85
2023-11-27T01:00:44.135Z,8.00
2023-11-27T01:01:48.092Z,8.05
2023-11-27T01:02:54.777Z,7.70
2023-11-27T01:03:58.050Z,6.93
2023-11-27T01:05:00.861Z,7.00
2023-11-27T01:06:05.655Z,7.53
2023-11-27T01:07:08.024Z,7.07
2023-11-27T01:08:13.890Z,8.68
2023-11-27T01:09:16.618Z,8.93
2023-11-27T01:10:19.957Z,8.25
2023-11-27T01:11:23.265Z,15.43
2023-11-27T01:12:25.418Z,13.63
2023-11-27T01:13:28.614Z,9.05
2023-11-27T01:14:31.107Z,8.63
2023-11-27T01:15:34.186Z,9.15
2023-11-27T01:16:36.319Z,7.97
2023-11-27T01:17:39.800Z,8.05
2023-11-27T01:18:43.382Z,7.28
2023-11-27T01:19:46.475Z,9.13
2023-11-27T01:20:48.638Z,10.65
2023-11-27T01:21:50.919Z,12.18
2023-11-27T01:22:54.054Z,9.88
2023-11-27T01:23:56.308Z,7.30
2023-11-27T01:24:59.465Z,7.57
2023-11-27T01:26:01.550Z,7.68
2023-11-27T01:27:05.131Z,7.85
2023-11-27T01:28:07.474Z,8.80
2023-11-27T01:29:10.732Z,7.80
2023-11-27T01:30:13.953Z,7.13
2023-11-27T01:31:17.275Z,7.50
2023-11-27T01:32:19.393Z,7.75
2023-11-27T01:33:22.710Z,7.43
2023-11-27T01:34:26.337Z,7.88
2023-11-27T01:35:29.619Z,7.10
2023-11-27T01:36:31.996Z,8.77
2023-11-27T01:37:35.331Z,7.63
2023-11-27T01:38:37.449Z,8.68
2023-11-27T01:39:41.394Z,8.82
2023-11-27T01:40:43.517Z,7.20
2023-11-27T01:41:46.587Z,7.82
2023-11-27T01:42:48.876Z,7.55
2023-11-27T01:43:51.100Z,7.80
2023-11-27T01:44:54.315Z,7.25
2023-11-27T01:46:17.653Z,6.90
2023-11-27T01:47:21.342Z,7.75
2023-11-27T01:48:23.479Z,7.65
2023-11-27T01:49:28.031Z,6.72
2023-11-27T01:50:30.224Z,7.45
2023-11-27T01:51:33.389Z,8.68
2023-11-27T01:52:36.298Z,7.63
2023-11-27T01:53:39.449Z,6.63
2023-11-27T01:54:42.016Z,7.50
2023-11-27T01:55:46.488Z,8.05
2023-11-27T01:56:49.907Z,7.95
2023-11-27T01:57:52.336Z,8.93
2023-11-27T01:58:58.355Z,7.38
2023-11-27T02:00:00.698Z,8.45
2023-11-27T02:01:04.314Z,8.85
2023-11-27T02:02:07.705Z,6.30
2023-11-27T02:03:11.606Z,7.22
2023-11-27T02:04:13.905Z,6.68
2023-11-27T02:05:19.051Z,7.07
2023-11-27T02:06:21.145Z,7.03
2023-11-27T02:07:24.662Z,6.93
2023-11-27T02:08:26.803Z,7.10
2023-11-27T02:09:30.134Z,8.80
2023-11-27T02:10:32.337Z,7.00
2023-11-27T02:11:35.720Z,7.95
2023-11-27T02:12:37.814Z,8.00
2023-11-27T02:13:40.907Z,7.88
2023-11-27T02:14:43.097Z,7.65
2023-11-27T02:15:46.517Z,9.77
2023-11-27T02:16:49.288Z,8.18
2023-11-27T02:17:52.816Z,7.78
2023-11-27T02:18:55.479Z,8.23
2023-11-27T02:19:58.117Z,10.40
2023-11-27T02:21:07.809Z,8.68
2023-11-27T02:22:10.017Z,8.63
2023-11-27T02:23:17.671Z,9.32
2023-11-27T02:24:19.868Z,9.30
2023-11-27T02:25:22.989Z,9.52
2023-11-27T02:26:25.068Z,11.18
2023-11-27T02:27:28.212Z,11.85
2023-11-27T02:28:30.289Z,10.32
2023-11-27T02:29:33.522Z,9.73
2023-11-27T02:30:35.719Z,9.38
2023-11-27T02:31:39.410Z,10.90
2023-11-27T02:32:41.799Z,10.77
2023-11-27T02:33:44.886Z,9.45
2023-11-27T02:34:47.769Z,9.98
2023-11-27T02:35:50.853Z,9.85
2023-11-27T02:36:52.975Z,12.15
2023-11-27T02:37:56.574Z,10.43
2023-11-27T02:39:00.417Z,10.15
2023-11-27T02:40:04.305Z,11.15
2023-11-27T02:41:07.409Z,10.27
2023-11-27T02:42:11.626Z,10.20
2023-11-27T02:43:14.122Z,10.10
2023-11-27T02:44:17.284Z,10.95
2023-11-27T02:45:19.436Z,13.38
2023-11-27T02:46:22.742Z,10.95
2023-11-27T02:47:24.903Z,12.85
2023-11-27T02:48:28.104Z,10.77
2023-11-27T02:49:30.227Z,10.70
2023-11-27T02:52:14.331Z,9.82
2023-11-27T02:53:17.313Z,11.13
2023-11-27T02:54:23.310Z,11.38
2023-11-27T02:55:25.563Z,10.82
2023-11-27T02:56:28.700Z,11.35
2023-11-27T02:57:30.814Z,11.65
2023-11-27T02:58:33.953Z,12.82
2023-11-27T02:59:36.218Z,11.18
2023-11-27T03:00:39.474Z,11.65
2023-11-27T03:01:42.478Z,10.13
2023-11-27T03:02:45.730Z,11.40
2023-11-27T03:03:47.944Z,12.63
2023-11-27T03:04:51.260Z,12.85
2023-11-27T03:05:53.359Z,11.18
2023-11-27T03:06:56.423Z,10.50
2023-11-27T03:07:59.101Z,11.60
2023-11-27T03:09:02.199Z,11.10
2023-11-27T03:10:06.852Z,13.55
2023-11-27T03:11:12.410Z,12.10
2023-11-27T03:12:14.504Z,10.13
2023-11-27T03:13:17.895Z,11.13
2023-11-27T03:14:20.529Z,12.55
2023-11-27T03:15:23.709Z,10.98
2023-11-27T03:16:25.826Z,10.50
2023-11-27T03:17:28.957Z,10.60
2023-11-27T03:18:31.037Z,12.50
2023-11-27T03:19:37.896Z,13.27
2023-11-27T03:20:48.637Z,10.63
2023-11-27T03:21:51.056Z,12.02
2023-11-27T03:22:54.270Z,11.13
2023-11-27T03:23:56.420Z,11.00
2023-11-27T03:24:59.677Z,11.15
2023-11-27T03:26:03.571Z,11.20
2023-11-27T03:27:07.109Z,11.10
2023-11-27T03:28:09.286Z,10.95
2023-11-27T03:29:14.426Z,10.82
2023-11-27T03:30:16.656Z,10.32
2023-11-27T03:31:20.409Z,13.40
2023-11-27T03:32:22.493Z,13.48
2023-11-27T03:33:25.554Z,11.00
2023-11-27T03:34:27.808Z,10.65
2023-11-27T03:35:32.085Z,11.27
2023-11-27T03:36:34.447Z,11.05
2023-11-27T03:37:37.509Z,12.02
2023-11-27T03:38:39.563Z,10.88
2023-11-27T03:39:42.617Z,11.18
2023-11-27T03:40:44.969Z,10.18
2023-11-27T03:41:52.528Z,11.93
2023-11-27T03:42:55.396Z,11.55
2023-11-27T03:43:58.547Z,10.05
2023-11-27T03:45:00.942Z,10.80
2023-11-27T03:46:04.066Z,10.52
2023-11-27T03:47:06.620Z,12.70
2023-11-27T03:48:09.717Z,11.10
2023-11-27T03:49:13.352Z,10.82
2023-11-27T03:50:16.986Z,12.55
2023-11-27T03:51:19.067Z,13.30
2023-11-27T03:52:23.432Z,11.35
2023-11-27T03:53:28.188Z,11.35
2023-11-27T03:54:30.305Z,11.90
2023-11-27T03:55:32.426Z,11.27
2023-11-27T03:56:36.446Z,12.13
2023-11-27T03:57:39.929Z,12.60
2023-11-27T03:58:42.998Z,13.30
2023-11-27T03:59:45.116Z,14.50
2023-11-27T04:00:48.332Z,11.23
2023-11-27T04:01:51.512Z,11.60
2023-11-27T04:02:54.936Z,11.32
2023-11-27T04:03:57.092Z,11.88
2023-11-27T04:05:00.371Z,12.02
2023-11-27T04:06:02.567Z,14.27
2023-11-27T04:07:06.136Z,14.27
2023-11-27T04:08:09.209Z,13.85
2023-11-27T04:09:14.457Z,13.65
2023-11-27T04:10:17.758Z,13.15
2023-11-27T04:11:21.485Z,13.82
2023-11-27T04:12:23.586Z,12.95
2023-11-27T04:13:28.087Z,11.90
2023-11-27T04:14:30.128Z,13.60
2023-11-27T04:15:33.170Z,14.63
2023-11-27T04:16:35.414Z,13.32
2023-11-27T04:17:38.592Z,15.25
2023-11-27T04:18:40.890Z,11.00
2023-11-27T04:19:43.934Z,12.73
2023-11-27T04:20:46.684Z,12.18
2023-11-27T04:21:49.829Z,12.45
2023-11-27T04:22:51.997Z,12.45
2023-11-27T04:23:55.071Z,12.55
2023-11-27T04:24:57.237Z,12.98
2023-11-27T04:26:00.277Z,12.75
2023-11-27T04:27:02.503Z,12.20
2023-11-27T04:28:06.233Z,12.50
2023-11-27T04:29:09.742Z,12.75
2023-11-27T04:30:14.612Z,14.77
2023-11-27T04:31:16.813Z,15.77
2023-11-27T04:32:20.014Z,12.35
2023-11-27T04:33:22.114Z,13.02
2023-11-27T04:34:25.352Z,15.10
2023-11-27T04:35:27.402Z,13.88
2023-11-27T04:36:30.509Z,13.98
2023-11-27T04:37:32.771Z,14.52
2023-11-27T04:38:35.841Z,12.57
2023-11-27T04:39:38.076Z,16.02
2023-11-27T04:40:41.137Z,14.65
2023-11-27T04:41:43.628Z,14.30
2023-11-27T04:42:45.801Z,14.40
2023-11-27T04:43:48.908Z,15.45
2023-11-27T04:44:52.477Z,15.63
2023-11-27T04:45:56.440Z,15.30
2023-11-27T04:46:58.569Z,18.02
2023-11-27T04:48:01.663Z,15.30
2023-11-27T04:49:03.811Z,15.98
2023-11-27T04:50:09.015Z,19.25
2023-11-27T04:51:11.281Z,16.00
2023-11-27T04:52:15.479Z,18.55
2023-11-27T04:53:17.598Z,16.55
2023-11-27T04:54:20.683Z,17.23
2023-11-27T04:55:22.824Z,16.00
2023-11-27T04:56:25.977Z,14.85
2023-11-27T04:57:27.999Z,15.23
2023-11-27T04:58:30.141Z,15.63
2023-11-27T04:59:33.246Z,23.27
2023-11-27T05:00:36.778Z,23.95
2023-11-27T05:01:39.991Z,18.38
2023-11-27T05:02:44.501Z,17.08
2023-11-27T05:03:47.644Z,17.25
2023-11-27T05:04:49.779Z,15.65
2023-11-27T05:05:51.921Z,14.63
2023-11-27T05:06:55.326Z,14.98
2023-11-27T05:07:57.404Z,16.30
2023-11-27T05:09:00.642Z,18.30
2023-11-27T05:10:03.755Z,17.70
2023-11-27T05:11:07.156Z,18.33
2023-11-27T05:12:17.515Z,15.45
2023-11-27T05:13:27.802Z,16.48
2023-11-27T05:14:29.856Z,15.38
2023-11-27T05:15:32.950Z,14.65
2023-11-27T05:16:36.463Z,15.73
2023-11-27T05:17:38.830Z,15.68
2023-11-27T05:18:41.905Z,20.00
2023-11-27T05:19:44.314Z,15.73
2023-11-27T05:20:47.836Z,15.35
2023-11-27T05:21:49.994Z,16.10
2023-11-27T05:22:53.076Z,18.77
2023-11-27T05:23:55.098Z,17.55
2023-11-27T05:24:58.310Z,15.57
2023-11-27T05:26:00.368Z,18.23
2023-11-27T05:27:04.634Z,18.35
2023-11-27T05:28:06.826Z,16.10
2023-11-27T05:29:10.287Z,15.98
2023-11-27T05:30:13.029Z,18.73
2023-11-27T05:31:16.403Z,19.23
2023-11-27T05:32:19.941Z,14.80
2023-11-27T05:33:23.090Z,15.95
2023-11-27T05:34:25.209Z,17.10
2023-11-27T05:35:28.762Z,18.52
2023-11-27T05:36:31.039Z,16.48
2023-11-27T05:37:34.146Z,15.50
2023-11-27T05:38:36.489Z,20.33
2023-11-27T05:39:42.262Z,18.95
2023-11-27T05:40:44.420Z,15.98
2023-11-27T05:41:50.528Z,17.13
2023-11-27T05:42:52.884Z,16.98
2023-11-27T05:43:57.280Z,16.58
2023-11-27T05:45:00.955Z,16.13
2023-11-27T05:46:03.345Z,16.88
2023-11-27T05:47:06.727Z,18.02
2023-11-27T05:48:10.317Z,16.83
2023-11-27T05:49:13.690Z,16.98
2023-11-27T05:50:15.847Z,17.35
2023-11-27T05:51:19.156Z,18.00
2023-11-27T05:52:21.303Z,17.90
2023-11-27T05:53:23.499Z,23.85
2023-11-27T05:54:28.066Z,33.95
2023-11-27T05:55:30.225Z,22.15
2023-11-27T05:56:33.452Z,20.77
2023-11-27T05:57:35.810Z,19.83
2023-11-27T05:58:38.887Z,19.33
2023-11-27T05:59:41.005Z,19.25
2023-11-27T06:00:44.030Z,21.85
2023-11-27T06:01:46.086Z,18.17
2023-11-27T06:02:48.309Z,17.73
2023-11-27T06:03:52.862Z,18.23
2023-11-27T06:04:55.193Z,17.70
2023-11-27T06:05:58.343Z,18.33
2023-11-27T06:07:00.449Z,19.83
2023-11-27T06:08:04.423Z,20.45
2023-11-27T06:09:08.007Z,20.13
2023-11-27T06:10:11.852Z,24.33
2023-11-27T06:11:13.950Z,20.73
2023-11-27T06:12:17.091Z,22.85
2023-11-27T06:13:19.178Z,23.13
2023-11-27T06:14:22.301Z,21.42
2023-11-27T06:15:24.348Z,25.27
2023-11-27T06:16:27.578Z,20.90
2023-11-27T06:17:29.651Z,22.63
2023-11-27T06:18:32.785Z,33.80
2023-11-27T06:19:36.458Z,44.83
2023-11-27T06:20:39.682Z,30.30
2023-11-27T06:21:42.707Z,27.33
2023-11-27T06:22:45.870Z,32.17
2023-11-27T06:23:47.939Z,31.17
2023-11-27T06:24:51.663Z,26.33
2023-11-27T06:25:54.229Z,28.23
2023-11-27T06:26:57.300Z,32.78
2023-11-27T06:27:59.372Z,31.23
2023-11-27T06:29:01.431Z,25.75
2023-11-27T06:30:04.957Z,23.73
2023-11-27T06:31:07.683Z,20.48
2023-11-27T06:32:10.800Z,22.73
2023-11-27T06:33:12.902Z,21.88
2023-11-27T06:34:16.004Z,21.48
2023-11-27T06:35:19.435Z,22.23
2023-11-27T06:36:23.364Z,23.30
2023-11-27T06:37:28.222Z,22.50
2023-11-27T06:38:31.337Z,21.10
2023-11-27T06:39:35.569Z,21.80
2023-11-27T06:40:45.761Z,28.75
2023-11-27T06:41:51.976Z,23.58
2023-11-27T06:42:56.969Z,43.55
2023-11-27T06:43:59.085Z,29.92
2023-11-27T06:45:04.581Z,30.27
2023-11-27T06:46:13.089Z,40.00
2023-11-27T06:47:16.329Z,29.13
2023-11-27T06:48:18.338Z,24.92
2023-11-27T06:49:21.529Z,31.67
2023-11-27T06:50:25.058Z,29.08
2023-11-27T06:51:28.790Z,29.25
2023-11-27T06:52:30.870Z,28.05
2023-11-27T06:53:33.949Z,29.27
2023-11-27T06:54:36.022Z,25.33
2023-11-27T06:55:38.589Z,21.90
2023-11-27T06:56:42.686Z,24.95
2023-11-27T06:57:44.720Z,21.38
2023-11-27T06:58:47.747Z,23.88
2023-11-27T06:59:49.817Z,32.85
2023-11-27T07:00:52.876Z,23.50
2023-11-27T07:01:55.115Z,21.90
2023-11-27T07:02:58.292Z,23.02
2023-11-27T07:04:01.690Z,23.67
2023-11-27T07:05:06.379Z,22.38
2023-11-27T07:06:10.836Z,23.13
2023-11-27T07:07:13.965Z,27.10
2023-11-27T07:08:16.004Z,23.15
2023-11-27T07:09:19.916Z,22.42
2023-11-27T07:10:22.034Z,22.80
2023-11-27T07:11:26.266Z,21.35
2023-11-27T07:12:28.436Z,20.05
2023-11-27T07:13:31.538Z,20.23
2023-11-27T07:14:33.637Z,20.85
2023-11-27T07:15:36.725Z,20.42
2023-11-27T07:16:39.265Z,22.23
2023-11-27T07:17:43.642Z,24.92
2023-11-27T07:18:47.364Z,19.58
2023-11-27T07:19:50.480Z,21.55
2023-11-27T07:20:52.543Z,19.48
2023-11-27T07:21:56.978Z,19.60
2023-11-27T07:22:59.877Z,17.80
2023-11-27T07:24:01.923Z,18.08
2023-11-27T07:25:05.513Z,19.95
2023-11-27T07:26:08.199Z,18.73
2023-11-27T07:27:11.338Z,17.83
2023-11-27T07:28:14.530Z,21.63
2023-11-27T07:29:16.745Z,20.88
2023-11-27T07:30:19.790Z,17.48
2023-11-27T07:31:21.933Z,18.02
2023-11-27T07:32:25.065Z,17.25
2023-11-27T07:33:27.667Z,16.08
2023-11-27T07:34:31.089Z,22.45
2023-11-27T07:35:33.137Z,18.52
2023-11-27T07:36:36.456Z,17.98
2023-11-27T07:37:40.842Z,16.63
2023-11-27T07:38:43.974Z,18.42
2023-11-27T07:39:46.230Z,20.60
2023-11-27T07:40:48.363Z,20.65
2023-11-27T07:41:51.424Z,23.40
2023-11-27T07:42:53.485Z,19.65
2023-11-27T07:43:57.540Z,23.83
2023-11-27T07:44:59.555Z,22.77
2023-11-27T07:46:02.811Z,23.27
2023-11-27T07:47:05.092Z,23.98
2023-11-27T07:48:08.405Z,20.10
2023-11-27T07:49:11.197Z,18.17
2023-11-27T07:50:14.358Z,21.45
2023-11-27T07:51:16.412Z,21.38
2023-11-27T07:52:19.584Z,24.33
2023-11-27T07:53:25.357Z,19.92
2023-11-27T07:54:28.783Z,19.50
2023-11-27T07:55:33.438Z,18.02
2023-11-27T07:56:37.182Z,18.67
2023-11-27T07:57:39.282Z,17.65
2023-11-27T07:58:45.555Z,20.55
2023-11-27T07:59:49.718Z,18.00
2023-11-27T08:00:53.457Z,18.10
2023-11-27T08:01:57.608Z,19.35
2023-11-27T08:03:00.751Z,15.90
2023-11-27T08:04:03.806Z,17.05
2023-11-27T08:05:10.258Z,18.88
2023-11-27T08:06:12.776Z,18.42
2023-11-27T08:07:15.848Z,19.88
2023-11-27T08:08:18.282Z,19.42
2023-11-27T08:09:23.073Z,14.77
2023-11-27T08:10:25.203Z,15.98
2023-11-27T08:11:33.228Z,19.48
2023-11-27T08:12:37.240Z,19.60
2023-11-27T08:13:44.009Z,17.17
2023-11-27T08:14:46.233Z,17.35
2023-11-27T08:15:49.669Z,15.68
2023-11-27T08:16:52.204Z,18.27
2023-11-27T08:17:57.498Z,16.50
2023-11-27T08:19:00.419Z,19.55
2023-11-27T08:20:05.987Z,16.27
2023-11-27T08:21:08.575Z,17.25
2023-11-27T08:22:12.622Z,17.88
2023-11-27T08:23:14.811Z,16.67
2023-11-27T08:24:17.847Z,14.10
2023-11-27T08:25:21.298Z,15.10
2023-11-27T08:26:24.403Z,13.82
2023-11-27T08:27:27.649Z,15.85
2023-11-27T08:28:30.776Z,14.20
2023-11-27T08:29:32.936Z,85.65
2023-11-27T08:30:36.021Z,30.02
2023-11-27T08:31:38.383Z,25.38
2023-11-27T08:32:41.814Z,14.68
2023-11-27T08:33:43.859Z,10.38
2023-11-27T08:34:46.918Z,11.85
2023-11-27T08:35:48.958Z,17.48
2023-11-27T08:36:51.052Z,13.30
2023-11-27T08:37:54.661Z,11.88
2023-11-27T08:38:56.976Z,11.52
2023-11-27T08:39:59.038Z,13.10
2023-11-27T08:41:03.976Z,16.45
2023-11-27T08:42:07.521Z,13.68
2023-11-27T08:43:10.616Z,13.40
2023-11-27T08:44:12.689Z,12.52
2023-11-27T08:45:17.632Z,13.27
2023-11-27T08:46:20.601Z,13.48
2023-11-27T08:47:24.526Z,12.57
2023-11-27T08:48:26.621Z,11.13
2023-11-27T08:49:30.142Z,11.38
2023-11-27T08:50:35.183Z,12.35
2023-11-27T08:51:38.521Z,11.80
2023-11-27T08:52:40.737Z,12.30
2023-11-27T08:53:43.914Z,12.70
2023-11-27T08:54:48.119Z,11.50
2023-11-27T08:55:51.213Z,10.70
2023-11-27T08:56:55.568Z,10.00
2023-11-27T08:58:01.922Z,10.30
2023-11-27T08:59:04.058Z,10.73
2023-11-27T09:00:12.393Z,10.95
2023-11-27T09:01:14.661Z,12.57
2023-11-27T09:02:18.428Z,13.15
2023-11-27T09:03:20.897Z,12.32
2023-11-27T09:04:24.536Z,13.07
2023-11-27T09:05:27.544Z,11.38
2023-11-27T09:06:31.111Z,11.18
2023-11-27T09:07:33.208Z,11.55
2023-11-27T09:08:45.463Z,11.75
2023-11-27T09:09:49.323Z,11.38
2023-11-27T09:10:53.679Z,12.48
2023-11-27T09:11:57.124Z,10.30
2023-11-27T09:13:00.216Z,9.98
2023-11-27T09:14:02.329Z,7.82
2023-11-27T09:15:06.597Z,8.15
2023-11-27T09:16:10.303Z,8.48
2023-11-27T09:17:13.491Z,8.13
2023-11-27T09:18:15.770Z,8.60
2023-11-27T09:19:18.965Z,8.02
2023-11-27T09:20:21.034Z,8.35
2023-11-27T09:21:25.597Z,8.75
2023-11-27T09:22:27.703Z,8.27
2023-11-27T09:23:30.748Z,9.25
2023-11-27T09:24:33.009Z,9.63
2023-11-27T09:25:35.251Z,9.60
2023-11-27T09:26:38.340Z,9.68
2023-11-27T09:27:42.098Z,10.43
2023-11-27T09:28:45.339Z,8.68
2023-11-27T09:29:47.401Z,7.85
2023-11-27T09:30:50.614Z,9.85
2023-11-27T09:31:52.769Z,7.95
2023-11-27T09:32:54.882Z,8.10
2023-11-27T09:33:58.477Z,9.07
2023-11-27T09:35:00.698Z,7.57
2023-11-27T09:36:05.223Z,7.47
2023-11-27T09:37:07.470Z,8.10
2023-11-27T09:38:10.547Z,7.35
2023-11-27T09:39:12.618Z,7.47
2023-11-27T09:40:16.754Z,7.95
2023-11-27T09:41:18.952Z,8.57
2023-11-27T09:42:21.163Z,7.93
2023-11-27T09:43:30.121Z,7.55
2023-11-27T09:44:33.867Z,7.70
2023-11-27T09:45:37.475Z,8.50
2023-11-27T09:46:39.651Z,7.65
2023-11-27T09:47:44.897Z,8.55
2023-11-27T09:48:49.326Z,8.82
2023-11-27T09:49:54.449Z,8.27
2023-11-27T09:50:59.235Z,9.07
2023-11-27T09:52:06.194Z,9.10
2023-11-27T09:53:09.391Z,9.38
2023-11-27T09:54:13.269Z,8.30
2023-11-27T09:55:15.968Z,9.63
2023-11-27T09:56:19.687Z,10.75
2023-11-27T09:57:23.633Z,11.43
2023-11-27T09:58:28.104Z,10.02
2023-11-27T09:59:31.208Z,10.05
2023-11-27T10:00:35.120Z,9.60
2023-11-27T10:01:38.481Z,9.23
2023-11-27T10:02:41.795Z,8.85
2023-11-27T10:03:44.165Z,8.93
2023-11-27T10:04:47.801Z,9.43
2023-11-27T10:05:50.993Z,10.13
2023-11-27T10:06:55.113Z,8.40
2023-11-27T10:07:58.503Z,9.13
2023-11-27T10:09:05.268Z,9.02
2023-11-27T10:10:08.743Z,10.52
2023-11-27T10:11:12.028Z,8.85
2023-11-27T10:12:14.082Z,9.00
2023-11-27T10:13:32.418Z,9.10
2023-11-27T10:14:43.888Z,9.05
2023-11-27T10:15:50.383Z,8.95
2023-11-27T10:16:54.450Z,9.20
2023-11-27T10:17:58.530Z,8.98
2023-11-27T10:19:07.087Z,9.38
2023-11-27T10:20:14.255Z,9.82
2023-11-27T10:21:17.247Z,10.23
2023-11-27T10:22:22.114Z,9.77
2023-11-27T10:23:24.254Z,10.52
2023-11-27T10:24:27.333Z,22.85
2023-11-27T10:25:30.935Z,11.25
2023-11-27T10:26:38.177Z,12.65
2023-11-27T10:27:40.247Z,10.00
2023-11-27T10:28:44.088Z,7.75
2023-11-27T10:29:48.115Z,6.90
2023-11-27T10:30:51.328Z,5.97
2023-11-27T10:31:54.921Z,6.20
2023-11-27T10:32:57.367Z,5.88
2023-11-27T10:34:00.594Z,5.55
2023-11-27T10:35:04.369Z,6.93
2023-11-27T10:36:08.324Z,6.65
2023-11-27T10:37:10.656Z,6.85
2023-11-27T10:38:18.183Z,6.72
2023-11-27T10:39:20.450Z,7.45
2023-11-27T10:40:27.817Z,8.00
2023-11-27T10:41:31.534Z,7.18
2023-11-27T10:42:35.634Z,6.85
2023-11-27T10:43:38.127Z,7.82
2023-11-27T10:44:46.112Z,7.15
2023-11-27T10:45:50.936Z,7.90
2023-11-27T10:46:54.853Z,7.47
2023-11-27T10:47:58.035Z,7.57
2023-11-27T10:49:02.035Z,7.85
2023-11-27T10:50:05.615Z,7.35
2023-11-27T10:51:08.172Z,7.75
2023-11-27T10:52:12.475Z,8.15
2023-11-27T10:53:15.085Z,7.32
2023-11-27T10:54:18.794Z,10.23
2023-11-27T10:55:21.530Z,11.63
2023-11-27T10:56:25.262Z,13.77
2023-11-27T10:57:28.741Z,16.02
2023-11-27T10:58:32.180Z,8.55
2023-11-27T10:59:47.824Z,7.32
2023-11-27T11:00:58.301Z,10.90
2023-11-27T11:02:04.245Z,8.55
2023-11-27T11:03:16.247Z,8.07
2023-11-27T11:04:24.166Z,8.05
2023-11-27T11:05:33.502Z,9.65
2023-11-27T11:06:35.676Z,8.43
2023-11-27T11:07:42.939Z,8.73
2023-11-27T11:08:46.449Z,8.27
2023-11-27T11:09:51.057Z,8.00
2023-11-27T11:10:54.764Z,7.80
2023-11-27T11:11:59.308Z,12.63
2023-11-27T11:13:03.051Z,8.60
2023-11-27T11:14:07.556Z,9.20
2023-11-27T11:15:14.649Z,9.88
2023-11-27T11:16:44.154Z,9.00
2023-11-27T11:17:52.327Z,7.97
2023-11-27T11:18:59.221Z,7.90
2023-11-27T11:20:15.357Z,9.20
2023-11-27T11:21:33.387Z,9.13
2023-11-27T11:22:41.925Z,9.27
2023-11-27T11:23:50.752Z,10.07
2023-11-27T11:24:59.148Z,9.98
2023-11-27T11:26:34.270Z,9.52
2023-11-27T11:27:50.554Z,8.90
2023-11-27T11:29:09.010Z,8.95
2023-11-27T11:30:14.705Z,11.07
2023-11-27T11:31:24.780Z,11.70
2023-11-27T11:32:30.756Z,10.52
2023-11-27T11:33:32.956Z,11.77
2023-11-27T11:34:38.479Z,11.38
2023-11-27T11:35:43.014Z,11.10
2023-11-27T11:36:46.635Z,10.45
2023-11-27T11:37:51.015Z,10.23
2023-11-27T11:38:53.970Z,10.45
2023-11-27T11:39:58.495Z,10.60
2023-11-27T11:41:00.823Z,10.55
2023-11-27T11:42:04.829Z,13.20
2023-11-27T11:43:08.453Z,11.60
2023-11-27T11:44:17.886Z,10.27
2023-11-27T11:45:26.600Z,10.25
2023-11-27T11:46:34.959Z,9.63
2023-11-27T11:47:41.109Z,9.07
2023-11-27T11:48:44.497Z,9.88
2023-11-27T11:49:47.779Z,9.23
2023-11-27T11:50:52.315Z,9.30
2023-11-27T11:52:03.668Z,7.65
2023-11-27T11:53:07.556Z,8.80
2023-11-27T11:54:11.091Z,8.45
2023-11-27T11:55:15.115Z,7.68
2023-11-27T11:56:21.352Z,7.50
2023-11-27T11:57:23.688Z,8.07
2023-11-27T11:58:30.384Z,8.43
2023-11-27T11:59:38.652Z,6.97
2023-11-27T12:00:45.696Z,8.52
2023-11-27T12:01:50.589Z,8.25
2023-11-27T12:02:54.615Z,8.23
2023-11-27T12:03:57.958Z,8.10
2023-11-27T12:05:01.156Z,8.20
2023-11-27T12:06:04.577Z,8.35
2023-11-27T12:07:07.183Z,9.73
2023-11-27T12:08:11.620Z,8.45
2023-11-27T12:09:14.663Z,8.48
2023-11-27T12:10:18.722Z,8.75
2023-11-27T12:11:24.258Z,7.93
2023-11-27T12:12:28.998Z,9.02
2023-11-27T12:13:35.892Z,7.93
2023-11-27T12:14:38.956Z,8.60
2023-11-27T12:15:42.034Z,8.88
2023-11-27T12:16:44.341Z,8.80
2023-11-27T12:17:51.482Z,8.32
2023-11-27T12:18:55.839Z,9.35
2023-11-27T12:19:59.089Z,8.95
2023-11-27T12:21:11.839Z,10.13
2023-11-27T12:22:14.932Z,8.60
2023-11-27T12:23:18.738Z,7.03
2023-11-27T12:24:22.477Z,7.95
2023-11-27T12:25:25.580Z,8.00
2023-11-27T12:26:29.032Z,9.00
2023-11-27T12:27:31.076Z,7.80
2023-11-27T12:28:35.800Z,7.07
2023-11-27T12:29:40.079Z,7.20
2023-11-27T12:30:44.803Z,6.35
2023-11-27T12:31:47.128Z,6.32
2023-11-27T12:32:53.302Z,6.60
2023-11-27T12:33:55.551Z,6.57
2023-11-27T12:34:58.594Z,5.70
2023-11-27T12:36:06.156Z,5.88
2023-11-27T12:37:09.954Z,6.10
2023-11-27T12:38:12.804Z,5.70
2023-11-27T12:39:18.449Z,6.10
2023-11-27T12:40:21.592Z,5.40
2023-11-27T12:41:33.814Z,5.55
2023-11-27T12:42:39.103Z,5.22
2023-11-27T12:43:41.579Z,5.75
2023-11-27T12:44:50.298Z,5.72
2023-11-27T12:45:58.855Z,5.25
2023-11-27T12:47:07.131Z,5.22
2023-11-27T12:48:10.994Z,5.95
2023-11-27T12:49:18.592Z,5.95
2023-11-27T12:50:25.100Z,5.47
2023-11-27T12:51:30.130Z,6.20
2023-11-27T12:52:37.273Z,6.85
2023-11-27T12:53:39.341Z,6.85
2023-11-27T12:54:42.610Z,5.13
2023-11-27T12:55:47.861Z,5.07
2023-11-27T12:56:51.720Z,5.32
2023-11-27T12:57:53.749Z,6.78
2023-11-27T12:58:56.778Z,6.45
2023-11-27T12:59:58.812Z,5.70
2023-11-27T13:02:07.792Z,5.00
2023-11-27T13:03:14.482Z,5.13
2023-11-27T13:04:17.703Z,5.32
2023-11-27T13:05:23.151Z,5.10
2023-11-27T13:06:28.901Z,4.90
2023-11-27T13:07:33.655Z,4.93
2023-11-27T13:08:37.522Z,4.75
2023-11-27T13:09:39.977Z,4.68
2023-11-27T13:10:44.377Z,5.32
2023-11-27T13:11:46.491Z,4.68
2023-11-27T13:12:50.152Z,4.95
2023-11-27T13:13:56.678Z,5.45
2023-11-27T13:14:59.802Z,5.85
2023-11-27T13:16:05.938Z,5.47
2023-11-27T13:17:19.672Z,5.00
2023-11-27T13:18:23.312Z,7.00
2023-11-27T13:19:26.508Z,7.55
2023-11-27T13:20:28.768Z,6.07
2023-11-27T13:21:33.723Z,35.72
2023-11-27T13:22:36.216Z,8.82
2023-11-27T13:23:39.989Z,9.43
2023-11-27T13:24:42.598Z,9.00
2023-11-27T13:25:49.977Z,6.10
2023-11-27T13:26:52.676Z,7.28
2023-11-27T13:27:55.770Z,5.20
2023-11-27T13:29:01.252Z,5.75
2023-11-27T13:30:04.693Z,5.72
2023-11-27T13:31:07.233Z,5.55
2023-11-27T13:32:10.407Z,5.38
2023-11-27T13:33:14.138Z,6.35
2023-11-27T13:34:33.580Z,6.90
2023-11-27T13:35:37.042Z,8.20
2023-11-27T13:36:43.373Z,7.97
2023-11-27T13:37:49.276Z,8.82
2023-11-27T13:38:52.210Z,8.32
2023-11-27T13:39:59.353Z,7.38
2023-11-27T13:41:01.860Z,10.43
2023-11-27T13:42:05.529Z,11.05
2023-11-27T13:43:10.033Z,12.13
2023-11-27T13:44:18.310Z,13.55
2023-11-27T13:45:26.474Z,14.52
2023-11-27T13:46:29.682Z,14.98
2023-11-27T13:47:34.584Z,15.95
2023-11-27T13:48:38.188Z,14.55
2023-11-27T13:49:42.472Z,14.18
2023-11-27T13:50:45.927Z,14.85
2023-11-27T13:51:55.156Z,13.38
2023-11-27T13:52:59.919Z,12.15
2023-11-27T13:54:02.339Z,12.75
2023-11-27T13:55:11.074Z,11.82
2023-11-27T13:56:20.136Z,12.07
2023-11-27T13:57:29.046Z,10.93